Time;durP1;ratioP1;P1;durP2;ratioP2;P2;SDS_P1;SDS_P2;PMS_P1;PMS_P2;Temp;Humidity;BMP_temperature;BMP_pressure;BME280_temperature;BME280_humidity;BME280_pressure;Samples;Min_cycle;Max_cycle;Signal;HPM_P1;HPM_P2
2022/11/24 00:01:04;;;;;;;;;;;6.90;94.10;;;;;;5011881;28;19917;-44
2022/11/24 00:03:31;;;;;;;;;;;6.90;94.10;;;;;;5013389;28;20473;-44
2022/11/24 00:06:02;;;;;;;;;;;6.90;94.10;;;;;;5014105;28;19992;-44
2022/11/24 00:08:28;;;;;;;;;;;6.90;94.10;;;;;;5004911;28;20286;-44
2022/11/24 00:10:55;;;;;;;;;;;6.90;94.20;;;;;;5010177;28;19922;-44
2022/11/24 00:13:21;;;;;;;;;;;6.90;94.20;;;;;;4997394;28;19921;-43
2022/11/24 00:15:47;;;;;;;;;;;6.90;94.20;;;;;;5005227;28;19956;-44
2022/11/24 00:18:14;;;;;;;;;;;6.90;94.20;;;;;;5012760;28;20310;-44
2022/11/24 00:20:41;;;;;;;;;;;6.90;94.20;;;;;;5013745;28;19905;-44
2022/11/24 00:23:08;;;;;;;;;;;7.00;94.20;;;;;;5013556;28;19906;-43
2022/11/24 00:25:37;;;;;;;;;;;7.00;94.20;;;;;;5010394;28;19910;-43
2022/11/24 00:28:03;;;;;;;;;;;7.00;94.20;;;;;;5012994;28;19916;-43
2022/11/24 00:30:29;;;;;;;;;;;7.00;94.20;;;;;;4995043;28;19914;-43
2022/11/24 00:32:56;;;;;;;;;;;7.10;94.20;;;;;;5003732;28;19914;-43
2022/11/24 00:35:22;;;;;;;;;;;7.10;94.10;;;;;;4994442;28;19906;-43
2022/11/24 00:37:52;;;;;;;;;;;7.10;94.10;;;;;;4994703;28;19921;-44
2022/11/24 00:40:19;;;;;;;;;;;7.00;94.00;;;;;;5025683;28;19918;-44
2022/11/24 00:42:45;;;;;;;;;;;7.00;93.90;;;;;;4994565;28;19910;-43
2022/11/24 00:45:11;;;;;;;;;;;6.90;93.90;;;;;;4994420;28;19972;-43
2022/11/24 00:47:37;;;;;;;;;;;6.90;93.80;;;;;;5003712;28;19976;-43
2022/11/24 00:50:04;;;;;;;;;;;6.90;93.90;;;;;;5013093;28;20500;-46
2022/11/24 00:52:30;;;;;;;;;;;6.90;93.90;;;;;;5009657;28;20259;-43
2022/11/24 00:54:57;;;;;;;;;;;6.90;94.00;;;;;;4994620;28;20298;-43
2022/11/24 00:57:23;;;;;;;;;;;6.90;93.90;;;;;;4994205;28;19922;-44
2022/11/24 00:59:50;;;;;;;;;;;6.90;93.90;;;;;;5012323;28;20007;-43
2022/11/24 01:02:16;;;;;;;;;;;6.90;93.90;;;;;;5012160;28;19921;-43
2022/11/24 01:04:43;;;;;;;;;;;6.90;93.80;;;;;;5012741;28;19905;-43
2022/11/24 01:07:09;;;;;;;;;;;6.90;93.90;;;;;;4997109;28;19929;-43
2022/11/24 01:09:36;;;;;;;;;;;6.90;93.90;;;;;;4993977;28;19925;-43
2022/11/24 01:12:03;;;;;;;;;;;6.90;93.80;;;;;;4999558;28;20519;-44
2022/11/24 01:14:32;;;;;;;;;;;6.80;93.70;;;;;;4994539;28;19921;-43
2022/11/24 01:16:58;;;;;;;;;;;6.90;93.70;;;;;;4994668;28;19964;-42
2022/11/24 01:19:28;;;;;;;;;;;6.80;93.60;;;;;;5013734;28;19932;-44
2022/11/24 01:21:55;;;;;;;;;;;6.80;93.50;;;;;;5012789;28;19980;-43
2022/11/24 01:24:22;;;;;;;;;;;6.70;93.60;;;;;;5005571;28;19913;-43
2022/11/24 01:26:47;;;;;;;;;;;6.70;93.60;;;;;;5017834;28;20285;-43
2022/11/24 01:29:13;;;;;;;;;;;6.80;93.60;;;;;;5012249;28;19913;-44
2022/11/24 01:31:40;;;;;;;;;;;6.80;93.60;;;;;;4998042;28;20339;-43
2022/11/24 01:34:07;;;;;;;;;;;6.80;93.60;;;;;;5013685;28;19913;-44
2022/11/24 01:36:34;;;;;;;;;;;6.80;93.70;;;;;;5015870;28;19906;-43
2022/11/24 01:39:01;;;;;;;;;;;6.80;93.70;;;;;;4997045;28;19913;-43
2022/11/24 01:41:27;;;;;;;;;;;6.70;93.70;;;;;;4997941;28;19916;-43
2022/11/24 01:43:57;;;;;;;;;;;6.70;93.70;;;;;;4997896;28;19917;-43
2022/11/24 01:46:31;;;;;;;;;;;6.70;93.60;;;;;;5000343;28;19920;-43
2022/11/24 01:49:16;;;;;;;;;;;6.70;93.70;;;;;;5016164;28;20409;-43
2022/11/24 01:51:49;;;;;;;;;;;6.70;93.70;;;;;;5012124;28;19964;-43
2022/11/24 01:54:23;;;;;;;;;;;6.60;93.60;;;;;;4997643;28;19910;-43
2022/11/24 01:56:53;;;;;;;;;;;6.60;93.70;;;;;;4998200;28;20008;-44
2022/11/24 01:59:20;;;;;;;;;;;6.60;93.70;;;;;;5017053;28;19919;-43
2022/11/24 02:01:49;;;;;;;;;;;6.60;93.60;;;;;;5013791;28;19909;-44
2022/11/24 02:04:17;;;;;;;;;;;6.60;93.60;;;;;;5003953;28;19976;-43
2022/11/24 02:06:44;;;;;;;;;;;6.60;93.70;;;;;;4996849;28;19948;-43
2022/11/24 02:09:12;;;;;;;;;;;6.60;93.80;;;;;;4996598;28;20251;-43
2022/11/24 02:11:39;;;;;;;;;;;6.70;93.80;;;;;;5012107;28;19917;-44
2022/11/24 02:14:08;;;;;;;;;;;6.60;93.80;;;;;;4996951;28;19968;-43
2022/11/24 02:16:34;;;;;;;;;;;6.70;93.90;;;;;;5013659;28;19909;-42
2022/11/24 02:19:06;;;;;;;;;;;6.70;93.90;;;;;;5014425;28;20281;-43
2022/11/24 02:21:32;;;;;;;;;;;6.80;93.90;;;;;;5013784;28;19909;-44
2022/11/24 02:24:05;;;;;;;;;;;6.80;93.90;;;;;;5015278;28;19999;-44
2022/11/24 02:26:51;;;;;;;;;;;6.80;93.90;;;;;;5009308;28;19921;-43
2022/11/24 02:29:19;;;;;;;;;;;6.80;94.00;;;;;;4996982;28;19969;-42
2022/11/24 02:31:48;;;;;;;;;;;6.90;94.00;;;;;;5012727;28;19920;-43
2022/11/24 02:34:19;;;;;;;;;;;6.90;94.00;;;;;;5008741;28;19913;-42
2022/11/24 02:36:46;;;;;;;;;;;6.90;94.00;;;;;;4996780;28;19929;-44
2022/11/24 02:39:13;;;;;;;;;;;6.90;93.90;;;;;;4996884;28;20029;-42
2022/11/24 02:41:51;;;;;;;;;;;6.90;94.00;;;;;;5010949;28;19918;-42
2022/11/24 02:44:18;;;;;;;;;;;7.00;93.90;;;;;;4996205;28;19921;-43
2022/11/24 02:46:44;;;;;;;;;;;7.00;94.00;;;;;;5016419;28;20293;-44
2022/11/24 02:49:11;;;;;;;;;;;7.00;94.00;;;;;;5014436;28;19913;-43
2022/11/24 02:51:37;;;;;;;;;;;7.00;94.00;;;;;;5001710;28;19910;-43
2022/11/24 02:54:04;;;;;;;;;;;7.00;94.00;;;;;;4996653;28;19909;-44
2022/11/24 02:56:31;;;;;;;;;;;7.00;94.00;;;;;;5001526;28;19910;-45
2022/11/24 02:59:00;;;;;;;;;;;7.00;94.00;;;;;;5012081;28;19936;-43
2022/11/24 03:01:27;;;;;;;;;;;7.00;94.00;;;;;;5004194;28;19909;-43
2022/11/24 03:03:53;;;;;;;;;;;7.00;94.00;;;;;;5008509;28;19909;-42
2022/11/24 03:06:20;;;;;;;;;;;7.00;93.90;;;;;;5015845;28;19909;-43
2022/11/24 03:08:45;;;;;;;;;;;6.90;93.90;;;;;;5015528;28;19945;-43
2022/11/24 03:11:12;;;;;;;;;;;6.90;93.90;;;;;;4996526;28;19968;-43
2022/11/24 03:13:39;;;;;;;;;;;6.90;93.90;;;;;;5001664;28;19909;-43
2022/11/24 03:16:09;;;;;;;;;;;6.90;93.90;;;;;;4998983;28;19916;-42
2022/11/24 03:18:36;;;;;;;;;;;6.90;93.90;;;;;;5001465;28;19913;-43
2022/11/24 03:21:02;;;;;;;;;;;6.90;93.90;;;;;;5015007;28;19906;-46
2022/11/24 03:23:28;;;;;;;;;;;6.80;93.90;;;;;;5027756;28;20138;-44
2022/11/24 03:26:04;;;;;;;;;;;6.80;93.90;;;;;;4994894;28;20721;-43
2022/11/24 03:28:31;;;;;;;;;;;6.80;94.00;;;;;;5005413;28;19920;-43
2022/11/24 03:30:58;;;;;;;;;;;6.70;93.90;;;;;;5002912;28;19910;-42
2022/11/24 03:33:25;;;;;;;;;;;6.60;93.80;;;;;;5012589;28;19975;-43
2022/11/24 03:35:52;;;;;;;;;;;6.60;93.90;;;;;;5011187;28;19916;-43
2022/11/24 03:38:18;;;;;;;;;;;6.50;93.90;;;;;;5009364;28;20374;-42
2022/11/24 03:40:46;;;;;;;;;;;6.50;93.90;;;;;;4995358;28;19909;-43
2022/11/24 03:43:12;;;;;;;;;;;6.50;94.00;;;;;;5013016;28;19913;-44
2022/11/24 03:45:39;;;;;;;;;;;6.50;94.00;;;;;;4995122;28;20271;-44
2022/11/24 03:48:07;;;;;;;;;;;6.50;94.00;;;;;;4997460;28;19916;-43
2022/11/24 03:50:34;;;;;;;;;;;6.40;94.00;;;;;;5014532;28;19945;-44
2022/11/24 03:53:00;;;;;;;;;;;6.40;94.00;;;;;;4993704;28;19949;-44
2022/11/24 03:55:27;;;;;;;;;;;6.40;94.10;;;;;;4995858;28;19963;-43
2022/11/24 03:57:53;;;;;;;;;;;6.40;94.10;;;;;;5013282;28;19967;-43
2022/11/24 04:00:19;;;;;;;;;;;6.40;94.10;;;;;;5013278;28;20224;-44
2022/11/24 04:02:46;;;;;;;;;;;6.30;94.10;;;;;;4995707;28;19925;-44
2022/11/24 04:05:12;;;;;;;;;;;6.40;94.10;;;;;;5012320;28;19909;-44
2022/11/24 04:07:39;;;;;;;;;;;6.40;94.20;;;;;;5014231;28;19915;-44
2022/11/24 04:10:05;;;;;;;;;;;6.30;94.20;;;;;;5013007;28;20335;-44
2022/11/24 04:12:47;;;;;;;;;;;6.30;94.20;;;;;;5010108;28;19949;-44
2022/11/24 04:15:17;;;;;;;;;;;6.30;94.20;;;;;;5001708;28;19917;-43
2022/11/24 04:17:45;;;;;;;;;;;6.30;94.20;;;;;;5014263;28;19956;-44
2022/11/24 04:20:12;;;;;;;;;;;6.30;94.20;;;;;;5003038;28;19921;-44
2022/11/24 04:22:39;;;;;;;;;;;6.30;94.20;;;;;;5010737;28;19907;-45
2022/11/24 04:25:06;;;;;;;;;;;6.20;94.20;;;;;;4994862;28;20294;-45
2022/11/24 04:27:35;;;;;;;;;;;6.20;94.20;;;;;;5002080;28;19914;-44
2022/11/24 04:30:03;;;;;;;;;;;6.20;94.10;;;;;;4995026;28;19953;-44
2022/11/24 04:32:30;;;;;;;;;;;6.10;94.20;;;;;;4994811;28;20727;-44
2022/11/24 04:34:57;;;;;;;;;;;6.10;94.20;;;;;;5007120;28;19933;-43
2022/11/24 04:37:26;;;;;;;;;;;6.10;94.20;;;;;;5002449;28;19921;-44
2022/11/24 04:39:54;;;;;;;;;;;6.10;94.20;;;;;;4994599;28;20344;-45
2022/11/24 04:42:20;;;;;;;;;;;6.00;94.30;;;;;;4999278;28;19965;-44
2022/11/24 04:44:47;;;;;;;;;;;6.00;94.30;;;;;;4994233;28;19948;-44
2022/11/24 04:47:16;;;;;;;;;;;6.00;94.30;;;;;;4993943;28;19905;-44
2022/11/24 04:49:45;;;;;;;;;;;6.00;94.30;;;;;;4999304;28;19913;-45
2022/11/24 04:52:11;;;;;;;;;;;6.00;94.30;;;;;;5009320;28;20346;-44
2022/11/24 04:54:38;;;;;;;;;;;5.90;94.20;;;;;;5010239;28;19917;-44
2022/11/24 04:57:05;;;;;;;;;;;5.90;94.30;;;;;;5010962;28;19909;-44
2022/11/24 04:59:32;;;;;;;;;;;5.90;94.30;;;;;;5005689;28;19971;-44
2022/11/24 05:01:57;;;;;;;;;;;5.90;94.30;;;;;;4994291;28;20263;-44
2022/11/24 05:04:24;;;;;;;;;;;5.90;94.30;;;;;;5006030;28;19920;-45
2022/11/24 05:06:51;;;;;;;;;;;5.90;94.30;;;;;;5001756;28;19940;-45
2022/11/24 05:09:16;;;;;;;;;;;5.90;94.30;;;;;;5004199;28;20250;-45
2022/11/24 05:11:43;;;;;;;;;;;5.90;94.30;;;;;;4998987;28;19909;-45
2022/11/24 05:14:10;;;;;;;;;;;5.90;94.20;;;;;;4994484;28;19920;-45
2022/11/24 05:16:36;;;;;;;;;;;5.90;94.20;;;;;;5009861;28;19909;-45
2022/11/24 05:19:05;;;;;;;;;;;5.80;94.30;;;;;;5013879;28;19906;-45
2022/11/24 05:21:31;;;;;;;;;;;5.90;94.30;;;;;;5013733;28;19906;-45
2022/11/24 05:23:57;;;;;;;;;;;5.90;94.30;;;;;;5008360;28;19988;-45
2022/11/24 05:26:25;;;;;;;;;;;5.80;94.30;;;;;;4994371;28;19906;-45
2022/11/24 05:28:51;;;;;;;;;;;5.80;94.30;;;;;;4994016;28;19913;-45
2022/11/24 05:31:19;;;;;;;;;;;5.80;94.30;;;;;;4998206;28;20266;-45
2022/11/24 05:33:46;;;;;;;;;;;5.70;94.30;;;;;;5010612;28;19913;-45
2022/11/24 05:36:51;;;;;;;;;;;5.80;94.40;;;;;;5013190;28;19905;-45
2022/11/24 05:38:59;;;;;;;;;;;5.80;94.30;;;;;;4993444;28;19914;-45
2022/11/24 05:41:26;;;;;;;;;;;5.70;94.30;;;;;;4994333;28;19905;-45
2022/11/24 05:43:53;;;;;;;;;;;5.70;94.30;;;;;;4994028;28;19949;-45
2022/11/24 05:46:19;;;;;;;;;;;5.70;94.40;;;;;;5011554;28;19917;-45
2022/11/24 05:48:46;;;;;;;;;;;5.70;94.40;;;;;;5013435;28;19975;-44
2022/11/24 05:51:13;;;;;;;;;;;5.80;94.50;;;;;;5010289;28;19906;-46
2022/11/24 05:53:40;;;;;;;;;;;5.90;94.60;;;;;;5013563;28;19957;-45
2022/11/24 05:56:07;;;;;;;;;;;5.90;94.60;;;;;;5013472;28;19905;-45
2022/11/24 05:58:34;;;;;;;;;;;6.00;94.70;;;;;;5003684;28;19905;-45
2022/11/24 06:01:04;;;;;;;;;;;6.00;94.70;;;;;;5013316;28;19920;-44
2022/11/24 06:03:30;;;;;;;;;;;6.20;94.80;;;;;;5013286;28;19916;-44
2022/11/24 06:05:57;;;;;;;;;;;6.20;94.70;;;;;;5011989;28;19959;-44
2022/11/24 06:08:26;;;;;;;;;;;6.30;94.70;;;;;;5016461;28;19921;-45
2022/11/24 06:10:54;;;;;;;;;;;6.30;94.70;;;;;;5014876;28;19917;-63
2022/11/24 06:13:20;;;;;;;;;;;6.30;94.70;;;;;;4997168;28;19914;-62
2022/11/24 06:15:51;;;;;;;;;;;6.40;94.80;;;;;;5011138;28;19913;-58
2022/11/24 06:18:18;;;;;;;;;;;6.40;94.70;;;;;;5016900;28;19913;-57
2022/11/24 06:20:45;;;;;;;;;;;6.40;94.70;;;;;;5012135;28;19913;-58
2022/11/24 06:23:12;;;;;;;;;;;6.40;94.70;;;;;;4997153;28;19924;-55
2022/11/24 06:25:39;;;;;;;;;;;6.40;94.70;;;;;;5001371;28;19988;-53
2022/11/24 06:28:06;;;;;;;;;;;6.40;94.70;;;;;;5005303;28;19949;-49
2022/11/24 06:30:32;;;;;;;;;;;6.40;94.70;;;;;;5006482;28;20350;-51
2022/11/24 06:32:57;;;;;;;;;;;6.40;94.70;;;;;;5012554;28;19913;-49
2022/11/24 06:35:24;;;;;;;;;;;6.40;94.60;;;;;;5010599;28;19906;-48
2022/11/24 06:37:49;;;;;;;;;;;6.30;94.70;;;;;;4996733;28;20322;-49
2022/11/24 06:40:15;;;;;;;;;;;6.30;94.70;;;;;;5014974;28;19913;-48
2022/11/24 06:42:48;;;;;;;;;;;6.40;94.70;;;;;;4997736;28;19910;-47
2022/11/24 06:45:15;;;;;;;;;;;6.30;94.70;;;;;;5001189;28;20453;-50
2022/11/24 06:47:41;;;;;;;;;;;6.30;94.70;;;;;;4996078;28;19941;-48
2022/11/24 06:50:11;;;;;;;;;;;6.30;94.70;;;;;;5011033;28;19965;-47
2022/11/24 06:52:38;;;;;;;;;;;6.30;94.70;;;;;;5011303;28;19910;-47
2022/11/24 06:55:05;;;;;;;;;;;6.30;94.70;;;;;;5010265;28;19933;-48
2022/11/24 06:57:34;;;;;;;;;;;6.20;94.70;;;;;;5001823;28;20234;-47
2022/11/24 06:59:59;;;;;;;;;;;6.20;94.70;;;;;;5013428;28;19983;-47
2022/11/24 07:02:29;;;;;;;;;;;6.20;94.80;;;;;;5012149;28;19914;-47
2022/11/24 07:04:56;;;;;;;;;;;6.20;94.70;;;;;;5013882;28;19910;-47
2022/11/24 07:07:22;;;;;;;;;;;6.10;94.80;;;;;;5013485;28;19971;-50
2022/11/24 07:09:48;;;;;;;;;;;6.10;94.70;;;;;;5010464;28;20244;-48
2022/11/24 07:12:15;;;;;;;;;;;6.10;94.80;;;;;;5002413;28;19920;-48
2022/11/24 07:14:41;;;;;;;;;;;6.20;94.80;;;;;;5015420;28;20009;-48
2022/11/24 07:17:07;;;;;;;;;;;6.20;94.80;;;;;;5013320;28;19909;-46
2022/11/24 07:19:32;;;;;;;;;;;6.20;94.80;;;;;;4994717;28;20059;-46
2022/11/24 07:21:59;;;;;;;;;;;6.20;94.80;;;;;;4995080;28;19918;-47
2022/11/24 07:24:26;;;;;;;;;;;6.20;94.70;;;;;;5004106;28;19984;-51
2022/11/24 07:26:55;;;;;;;;;;;6.10;94.60;;;;;;4993951;28;19905;-48
2022/11/24 07:29:21;;;;;;;;;;;6.10;94.70;;;;;;4994392;28;20588;-46
2022/11/24 07:31:48;;;;;;;;;;;6.10;94.60;;;;;;5015065;28;20215;-47
2022/11/24 07:34:15;;;;;;;;;;;6.10;94.70;;;;;;5010616;28;19917;-47
2022/11/24 07:36:43;;;;;;;;;;;6.10;94.70;;;;;;5014776;28;19916;-47
2022/11/24 07:39:10;;;;;;;;;;;6.10;94.70;;;;;;5003589;28;19918;-47
2022/11/24 07:41:37;;;;;;;;;;;6.10;94.60;;;;;;4995326;28;20346;-47
2022/11/24 07:44:04;;;;;;;;;;;6.10;94.60;;;;;;4995106;28;19910;-47
2022/11/24 07:46:31;;;;;;;;;;;6.10;94.60;;;;;;5012327;28;20027;-47
2022/11/24 07:48:58;;;;;;;;;;;6.20;94.60;;;;;;5014951;28;20254;-47
2022/11/24 07:51:25;;;;;;;;;;;6.10;94.50;;;;;;5010518;28;20315;-46
2022/11/24 07:53:52;;;;;;;;;;;6.10;94.50;;;;;;4995553;28;19916;-46
2022/11/24 07:56:19;;;;;;;;;;;6.10;94.50;;;;;;4995532;28;19905;-46
2022/11/24 07:58:46;;;;;;;;;;;6.10;94.50;;;;;;5010825;28;19920;-46
2022/11/24 08:01:14;;;;;;;;;;;6.20;94.50;;;;;;5007054;28;19910;-46
2022/11/24 08:03:41;;;;;;;;;;;6.20;94.50;;;;;;4995196;28;20307;-47
2022/11/24 08:06:08;;;;;;;;;;;6.20;94.50;;;;;;5010509;28;19916;-46
2022/11/24 08:08:34;;;;;;;;;;;6.30;94.50;;;;;;5001299;28;20349;-46
2022/11/24 08:11:07;;;;;;;;;;;6.20;94.50;;;;;;5014421;28;20378;-46
2022/11/24 08:13:34;;;;;;;;;;;6.30;94.50;;;;;;4994382;28;19985;-46
2022/11/24 08:16:10;;;;;;;;;;;6.30;94.40;;;;;;5011755;28;19909;-47
2022/11/24 08:18:39;;;;;;;;;;;6.30;94.40;;;;;;5006288;28;19913;-46
2022/11/24 08:21:09;;;;;;;;;;;6.30;94.40;;;;;;5009917;28;19906;-46
2022/11/24 08:23:36;;;;;;;;;;;6.40;94.30;;;;;;4998171;28;20582;-46
2022/11/24 08:26:08;;;;;;;;;;;6.40;94.30;;;;;;5013038;28;20374;-46
2022/11/24 08:28:34;;;;;;;;;;;6.40;94.30;;;;;;5008518;28;19910;-46
2022/11/24 08:31:01;;;;;;;;;;;6.40;94.30;;;;;;5007434;28;19971;-47
2022/11/24 08:33:28;;;;;;;;;;;6.50;94.20;;;;;;5006846;28;20003;-45
2022/11/24 08:35:54;;;;;;;;;;;6.50;94.20;;;;;;5012230;28;19983;-46
2022/11/24 08:38:23;;;;;;;;;;;6.50;94.10;;;;;;5012530;28;19972;-46
2022/11/24 08:40:49;;;;;;;;;;;6.60;94.10;;;;;;5007891;28;19947;-45
2022/11/24 08:43:16;;;;;;;;;;;6.60;94.10;;;;;;5008884;28;19996;-46
2022/11/24 08:45:44;;;;;;;;;;;6.70;94.10;;;;;;5002835;28;19928;-46
2022/11/24 08:48:11;;;;;;;;;;;6.70;94.10;;;;;;5014061;28;19905;-45
2022/11/24 08:50:37;;;;;;;;;;;6.80;94.00;;;;;;5004462;28;20049;-45
2022/11/24 08:53:02;;;;;;;;;;;6.90;94.00;;;;;;4994350;28;20004;-45
2022/11/24 08:55:29;;;;;;;;;;;6.90;93.90;;;;;;4994895;28;20079;-45
2022/11/24 08:57:56;;;;;;;;;;;7.00;93.70;;;;;;4994347;28;19961;-45
2022/11/24 09:00:23;;;;;;;;;;;7.00;93.60;;;;;;5011983;28;19909;-44
2022/11/24 09:02:56;;;;;;;;;;;7.20;93.50;;;;;;5013104;28;19909;-45
2022/11/24 09:05:23;;;;;;;;;;;7.20;93.30;;;;;;4998306;28;20259;-45
2022/11/24 09:07:50;;;;;;;;;;;7.30;93.10;;;;;;5008598;28;19913;-45
2022/11/24 09:10:16;;;;;;;;;;;7.40;93.00;;;;;;4993816;28;19918;-44
2022/11/24 09:12:46;;;;;;;;;;;7.40;92.70;;;;;;4977632;28;19909;-44
2022/11/24 09:15:15;;;;;;;;;;;7.40;92.70;;;;;;5011185;28;19910;-44
2022/11/24 09:17:42;;;;;;;;;;;7.50;92.60;;;;;;5013863;28;20319;-45
2022/11/24 09:20:09;;;;;;;;;;;7.60;92.50;;;;;;5012958;28;19995;-44
2022/11/24 09:22:37;;;;;;;;;;;7.60;92.30;;;;;;5013711;28;19921;-43
2022/11/24 09:25:04;;;;;;;;;;;7.70;92.30;;;;;;4995428;28;19914;-42
2022/11/24 09:27:31;;;;;;;;;;;7.80;92.10;;;;;;4993554;28;20236;-43
2022/11/24 09:29:58;;;;;;;;;;;7.90;92.10;;;;;;4997031;28;19914;-43
2022/11/24 09:32:25;;;;;;;;;;;7.90;92.00;;;;;;5013621;28;19917;-43
2022/11/24 09:34:52;;;;;;;;;;;8.00;91.90;;;;;;5012126;28;19945;-43
2022/11/24 09:37:19;;;;;;;;;;;8.00;91.80;;;;;;4993999;28;20653;-43
2022/11/24 09:39:45;;;;;;;;;;;8.00;91.50;;;;;;4993722;28;20000;-43
2022/11/24 09:42:30;;;;;;;;;;;8.10;91.60;;;;;;5006474;28;19917;-42
2022/11/24 09:45:14;;;;;;;;;;;8.10;91.50;;;;;;5015202;28;20031;-44
2022/11/24 09:47:58;;;;;;;;;;;8.20;91.20;;;;;;4997101;28;19905;-42
2022/11/24 09:50:26;;;;;;;;;;;8.20;91.20;;;;;;4997304;28;19914;-43
2022/11/24 09:53:00;;;;;;;;;;;8.30;91.10;;;;;;4997625;28;20255;-42
2022/11/24 09:55:44;;;;;;;;;;;8.40;91.10;;;;;;5000331;28;19960;-42
2022/11/24 09:58:28;;;;;;;;;;;8.40;91.00;;;;;;5016175;28;19909;-42
2022/11/24 10:00:54;;;;;;;;;;;8.40;90.90;;;;;;5005115;28;19909;-45
2022/11/24 10:03:32;;;;;;;;;;;8.40;91.10;;;;;;5014521;28;19940;-42
2022/11/24 10:06:01;;;;;;;;;;;8.40;91.20;;;;;;5011292;28;19992;-44
2022/11/24 10:08:39;;;;;;;;;;;8.30;91.20;;;;;;5007645;28;20370;-43
2022/11/24 10:11:18;;;;;;;;;;;8.40;91.40;;;;;;5011047;28;20248;-43
2022/11/24 10:13:47;;;;;;;;;;;8.40;91.40;;;;;;4996675;28;19910;-44
2022/11/24 10:16:18;;;;;;;;;;;8.40;91.30;;;;;;5002075;28;19917;-43
2022/11/24 10:18:51;;;;;;;;;;;8.50;91.10;;;;;;5003527;28;19941;-45
2022/11/24 10:21:26;;;;;;;;;;;8.50;91.30;;;;;;4996869;28;19952;-43
2022/11/24 10:24:06;;;;;;;;;;;8.50;91.20;;;;;;5021467;28;19951;-43
2022/11/24 10:26:47;;;;;;;;;;;8.50;91.30;;;;;;5016149;28;19932;-44
2022/11/24 10:29:23;;;;;;;;;;;8.60;91.20;;;;;;5010917;28;20394;-43
2022/11/24 10:31:55;;;;;;;;;;;8.60;91.10;;;;;;5007671;28;20247;-43
2022/11/24 10:34:39;;;;;;;;;;;8.60;91.10;;;;;;5012319;28;19909;-43
2022/11/24 10:37:27;;;;;;;;;;;8.70;91.20;;;;;;4996800;28;19910;-43
2022/11/24 10:40:11;;;;;;;;;;;8.70;91.20;;;;;;5012071;28;19905;-44
2022/11/24 10:42:41;;;;;;;;;;;8.80;91.10;;;;;;4996718;28;19906;-45
2022/11/24 10:45:12;;;;;;;;;;;8.90;91.00;;;;;;5000446;28;19910;-46
2022/11/24 10:47:38;;;;;;;;;;;8.90;90.90;;;;;;5012241;28;19984;-44
2022/11/24 10:50:11;;;;;;;;;;;8.90;90.80;;;;;;4999013;28;19948;-44
2022/11/24 10:52:43;;;;;;;;;;;9.00;91.00;;;;;;4996376;28;19906;-45
2022/11/24 10:55:10;;;;;;;;;;;9.00;90.80;;;;;;5011226;28;20342;-45
2022/11/24 10:57:38;;;;;;;;;;;9.00;90.60;;;;;;4998338;28;19920;-44
2022/11/24 11:00:25;;;;;;;;;;;9.00;90.50;;;;;;4996584;28;19910;-44
2022/11/24 11:03:09;;;;;;;;;;;9.10;90.40;;;;;;5003808;28;20254;-45
2022/11/24 11:05:54;;;;;;;;;;;9.20;90.10;;;;;;5011742;28;20243;-45
2022/11/24 11:08:22;;;;;;;;;;;9.20;89.90;;;;;;5013546;28;19917;-45
2022/11/24 11:10:54;;;;;;;;;;;9.20;90.10;;;;;;5014028;28;20258;-44
2022/11/24 11:13:22;;;;;;;;;;;9.20;90.00;;;;;;5000707;28;19913;-44
2022/11/24 11:15:49;;;;;;;;;;;9.20;89.80;;;;;;4994679;28;20465;-45
2022/11/24 11:18:17;;;;;;;;;;;9.20;89.80;;;;;;5010465;28;19924;-45
2022/11/24 11:20:51;;;;;;;;;;;9.30;89.80;;;;;;5015596;28;19909;-45
2022/11/24 11:23:24;;;;;;;;;;;9.30;89.60;;;;;;5030799;28;19909;-45
2022/11/24 11:26:12;;;;;;;;;;;9.20;89.80;;;;;;5014928;28;19920;-46
2022/11/24 11:28:37;;;;;;;;;;;9.20;89.70;;;;;;5010768;28;19909;-44
2022/11/24 11:31:05;;;;;;;;;;;9.20;89.70;;;;;;5009269;28;20368;-45
2022/11/24 11:33:32;;;;;;;;;;;9.20;89.70;;;;;;5003747;28;19906;-46
2022/11/24 11:36:00;;;;;;;;;;;9.20;89.40;;;;;;4995862;28;19910;-47
2022/11/24 11:38:35;;;;;;;;;;;9.30;89.50;;;;;;4995734;28;19914;-45
2022/11/24 11:41:04;;;;;;;;;;;9.30;89.40;;;;;;4995820;28;19944;-45
2022/11/24 11:43:35;;;;;;;;;;;9.20;89.40;;;;;;5012864;28;19916;-45
2022/11/24 11:46:03;;;;;;;;;;;9.20;89.50;;;;;;5015220;28;19919;-46
2022/11/24 11:48:35;;;;;;;;;;;9.20;89.70;;;;;;5013035;28;19917;-45
2022/11/24 11:51:25;;;;;;;;;;;9.20;89.70;;;;;;5015198;28;20372;-46
2022/11/24 11:54:06;;;;;;;;;;;9.20;89.60;;;;;;5000281;28;19918;-45
2022/11/24 11:56:39;;;;;;;;;;;9.30;89.60;;;;;;5012513;28;19909;-46
2022/11/24 11:59:31;;;;;;;;;;;9.30;89.40;;;;;;5012126;28;19976;-45
2022/11/24 12:02:16;;;;;;;;;;;9.30;89.30;;;;;;5007923;28;20031;-45
2022/11/24 12:05:02;;;;;;;;;;;9.30;89.30;;;;;;5014651;28;20317;-45
2022/11/24 12:07:47;;;;;;;;;;;9.30;89.00;;;;;;4995220;28;19921;-46
2022/11/24 12:10:34;;;;;;;;;;;9.30;89.10;;;;;;5021663;28;19917;-45
2022/11/24 12:13:18;;;;;;;;;;;9.30;89.20;;;;;;5005592;28;19939;-45
2022/11/24 12:15:50;;;;;;;;;;;9.40;89.10;;;;;;4994910;28;19913;-46
2022/11/24 12:18:31;;;;;;;;;;;9.40;88.90;;;;;;5013523;28;19916;-46
2022/11/24 12:21:06;;;;;;;;;;;9.40;88.90;;;;;;5014679;28;19916;-45
2022/11/24 12:23:49;;;;;;;;;;;9.40;89.10;;;;;;4995953;28;20004;-45
2022/11/24 12:26:34;;;;;;;;;;;9.40;89.20;;;;;;5010187;28;19920;-45
2022/11/24 12:29:08;;;;;;;;;;;9.40;89.10;;;;;;5003215;28;19923;-45
2022/11/24 12:31:36;;;;;;;;;;;9.40;89.20;;;;;;4997336;28;19913;-45
2022/11/24 12:34:19;;;;;;;;;;;9.40;89.20;;;;;;5014129;28;19917;-46
2022/11/24 12:37:04;;;;;;;;;;;9.40;89.20;;;;;;5000193;28;20289;-45
2022/11/24 12:39:38;;;;;;;;;;;9.40;89.20;;;;;;4994234;28;19933;-45
2022/11/24 12:42:23;;;;;;;;;;;9.40;89.20;;;;;;5008432;28;20005;-45
2022/11/24 12:44:55;;;;;;;;;;;9.40;89.20;;;;;;5012914;28;19979;-46
2022/11/24 12:47:42;;;;;;;;;;;9.40;89.10;;;;;;5012518;28;19910;-45
2022/11/24 12:50:16;;;;;;;;;;;9.40;89.10;;;;;;4995701;28;19995;-46
2022/11/24 12:53:00;;;;;;;;;;;9.40;89.10;;;;;;4993963;28;19921;-45
2022/11/24 12:55:29;;;;;;;;;;;9.40;89.20;;;;;;5001149;28;19910;-45
2022/11/24 12:58:01;;;;;;;;;;;9.40;89.30;;;;;;5012528;28;19910;-45
2022/11/24 13:00:45;;;;;;;;;;;9.40;89.40;;;;;;4994225;28;19909;-46
2022/11/24 13:03:23;;;;;;;;;;;9.40;89.40;;;;;;5006021;28;19913;-45
2022/11/24 13:06:09;;;;;;;;;;;9.40;89.30;;;;;;5014043;28;20362;-45
2022/11/24 13:08:36;;;;;;;;;;;9.30;89.30;;;;;;4994573;28;20004;-46
2022/11/24 13:11:20;;;;;;;;;;;9.40;89.30;;;;;;5009900;28;20343;-45
2022/11/24 13:14:00;;;;;;;;;;;9.30;89.30;;;;;;5010374;28;20382;-45
2022/11/24 13:16:28;;;;;;;;;;;9.30;89.40;;;;;;4995891;28;19997;-45
2022/11/24 13:19:12;;;;;;;;;;;9.30;89.40;;;;;;5016283;28;20038;-45
2022/11/24 13:21:48;;;;;;;;;;;9.30;89.50;;;;;;5019471;28;20258;-45
2022/11/24 13:24:34;;;;;;;;;;;9.30;89.50;;;;;;5013110;28;19909;-46
2022/11/24 13:27:15;;;;;;;;;;;9.20;89.50;;;;;;5000257;28;20224;-49
2022/11/24 13:29:59;;;;;;;;;;;9.20;89.50;;;;;;4999026;28;19910;-46
2022/11/24 13:32:34;;;;;;;;;;;9.20;89.50;;;;;;5002751;28;19909;-46
2022/11/24 13:35:12;;;;;;;;;;;9.20;89.60;;;;;;5019861;28;19913;-47
2022/11/24 13:37:57;;;;;;;;;;;9.10;89.70;;;;;;5000431;28;20052;-45
2022/11/24 13:40:28;;;;;;;;;;;9.20;89.80;;;;;;5015819;28;19909;-46
2022/11/24 13:42:56;;;;;;;;;;;9.10;89.80;;;;;;5017133;28;20228;-46
2022/11/24 13:45:42;;;;;;;;;;;9.10;89.90;;;;;;5020069;28;20223;-45
2022/11/24 13:48:22;;;;;;;;;;;9.10;89.90;;;;;;5018183;28;19916;-45
2022/11/24 13:50:54;;;;;;;;;;;9.10;89.90;;;;;;5020082;28;19909;-48
2022/11/24 13:53:20;;;;;;;;;;;9.00;89.90;;;;;;5018520;28;19913;-45
2022/11/24 13:55:58;;;;;;;;;;;9.00;89.90;;;;;;5014389;28;19909;-44
2022/11/24 13:58:42;;;;;;;;;;;9.00;89.90;;;;;;5019956;28;19917;-45
2022/11/24 14:01:18;;;;;;;;;;;9.00;89.80;;;;;;5007775;28;20000;-47
2022/11/24 14:03:55;;;;;;;;;;;8.90;89.90;;;;;;5018159;28;19913;-45
2022/11/24 14:06:36;;;;;;;;;;;8.90;90.10;;;;;;5015115;28;20235;-45
2022/11/24 14:09:25;;;;;;;;;;;8.90;90.10;;;;;;4999547;28;19928;-45
2022/11/24 14:11:58;;;;;;;;;;;8.90;90.20;;;;;;4996593;28;19914;-45
2022/11/24 14:14:25;;;;;;;;;;;8.90;90.30;;;;;;5005706;28;20327;-46
2022/11/24 14:17:14;;;;;;;;;;;8.90;90.20;;;;;;5018030;28;19913;-45
2022/11/24 14:19:42;;;;;;;;;;;8.90;90.30;;;;;;5012565;28;19916;-47
2022/11/24 14:22:17;;;;;;;;;;;8.90;90.40;;;;;;5003418;28;19917;-46
2022/11/24 14:24:45;;;;;;;;;;;8.90;90.40;;;;;;5004735;28;19916;-45
2022/11/24 14:27:14;;;;;;;;;;;8.90;90.40;;;;;;5017296;28;19909;-45
2022/11/24 14:30:02;;;;;;;;;;;8.80;90.40;;;;;;5008525;28;19921;-44
2022/11/24 14:32:29;;;;;;;;;;;8.80;90.40;;;;;;5013875;28;19925;-45
2022/11/24 14:34:56;;;;;;;;;;;8.70;90.40;;;;;;4996884;28;20320;-46
2022/11/24 14:37:23;;;;;;;;;;;8.70;90.50;;;;;;4996932;28;19936;-45
2022/11/24 14:39:53;;;;;;;;;;;8.60;90.50;;;;;;4998941;28;20001;-44
2022/11/24 14:42:37;;;;;;;;;;;8.60;90.60;;;;;;5013412;28;20363;-45
2022/11/24 14:45:04;;;;;;;;;;;8.50;90.60;;;;;;5016456;28;20258;-46
2022/11/24 14:47:37;;;;;;;;;;;8.50;90.70;;;;;;5015278;28;19909;-47
2022/11/24 14:50:14;;;;;;;;;;;8.40;90.80;;;;;;4996616;28;19918;-45